BKPR/PRN METAR and TAF weather

Enter ICAO airport designator
Station Type Date Time Source
BKPR METAR 2021/01/22 07:00 UTC NOAA

BKPR 220700Z 20007KT 9999 SCT040 SCT090 BKN170 04/M00 Q1018 NOSIG RMK 17010095


Station Type Date Time Source
BKPR Decoded METAR 2021/01/22 07:00 UTC NOAA

Station name not available
Jan 22, 2021 - 02:00 AM EST / 2021.01.22 0700 UTC
Wind: from the SSW (200 degrees) at 8 MPH (7 KT):0
Visibility: greater than 7 mile(s):0
Sky conditions: mostly cloudy
Temperature: 39 F (4 C)
Dew Point: 32 F (0 C)
Relative Humidity: 75%
Pressure (altimeter): 30.06 in. Hg (1018 hPa)
ob: BKPR 220700Z 20007KT 9999 SCT040 SCT090 BKN170 04/M00 Q1018 NOSIG RMK 17010095
cycle: 7

Station Type Date Time Source
BKPR TAF 2021/01/22 06:30 UTC NOAA

TAF BKPR 220530Z 2206/2306 18012KT 9999 BKN050

Example: see airport list